createdAt,value
2023-07-07T00:00:21.620Z,99224.06
2023-07-07T00:02:48.600Z,99230.06
2023-07-07T00:05:15.543Z,99230.06
2023-07-07T00:07:43.707Z,99221.75
2023-07-07T00:10:10.435Z,99226.72
2023-07-07T00:12:39.441Z,99227.41
2023-07-07T00:15:07.114Z,99226.13
2023-07-07T00:17:33.936Z,99234.09
2023-07-07T00:20:09.276Z,99232.47
2023-07-07T00:22:36.137Z,99226.16
2023-07-07T00:25:05.271Z,99226.81
2023-07-07T00:27:32.313Z,99229.97
2023-07-07T00:30:01.027Z,99228.47
2023-07-07T00:32:27.802Z,99233.47
2023-07-07T00:34:55.015Z,99223.66
2023-07-07T00:37:21.724Z,99221.16
2023-07-07T00:39:48.443Z,99222.31
2023-07-07T00:42:17.096Z,99221.50
2023-07-07T00:45:02.311Z,99223.47
2023-07-07T00:47:29.029Z,99226.97
2023-07-07T00:49:56.856Z,99222.47
2023-07-07T00:52:24.121Z,99224.66
2023-07-07T00:54:51.183Z,99231.94
2023-07-07T00:57:19.640Z,99229.91
2023-07-07T00:59:47.754Z,99221.78
2023-07-07T01:02:26.283Z,99228.44
2023-07-07T01:04:55.796Z,99242.69
2023-07-07T01:07:25.111Z,99244.66
2023-07-07T01:09:52.350Z,99243.13
2023-07-07T01:12:20.511Z,99239.97
2023-07-07T01:14:48.770Z,99237.13
2023-07-07T01:17:22.137Z,99231.84
2023-07-07T01:20:10.779Z,99238.50
2023-07-07T01:22:58.460Z,99233.00
2023-07-07T01:25:29.947Z,99243.06
2023-07-07T01:28:12.192Z,99241.22
2023-07-07T01:30:46.734Z,99255.91
2023-07-07T01:33:15.784Z,99258.44
2023-07-07T01:35:42.514Z,99249.44
2023-07-07T01:38:24.028Z,99246.13
2023-07-07T01:40:53.913Z,99238.53
2023-07-07T01:43:27.704Z,99231.38
2023-07-07T01:45:58.736Z,99241.84
2023-07-07T01:48:31.270Z,99247.91
2023-07-07T01:50:59.278Z,99245.69
2023-07-07T01:53:27.508Z,99242.69
2023-07-07T01:55:56.859Z,99246.59
2023-07-07T01:58:25.246Z,99257.03
2023-07-07T02:00:52.841Z,99252.53
2023-07-07T02:03:21.067Z,99256.34
2023-07-07T02:05:48.084Z,99259.53
2023-07-07T02:08:15.134Z,99254.56
2023-07-07T02:10:41.799Z,99257.50
2023-07-07T02:13:08.542Z,99253.13
2023-07-07T02:15:35.208Z,99253.56
2023-07-07T02:18:02.137Z,99244.53
2023-07-07T02:20:30.210Z,99253.63
2023-07-07T02:22:57.348Z,99247.94
2023-07-07T02:25:24.163Z,99245.47
2023-07-07T02:27:50.857Z,99234.03
2023-07-07T02:30:18.928Z,99232.91
2023-07-07T02:32:45.660Z,99233.69
2023-07-07T02:35:13.582Z,99230.16
2023-07-07T02:37:41.695Z,99230.03
2023-07-07T02:40:10.486Z,99243.19
2023-07-07T02:42:38.393Z,99236.44
2023-07-07T02:45:07.203Z,99241.25
2023-07-07T02:47:33.903Z,99244.44
2023-07-07T02:50:00.706Z,99241.41
2023-07-07T02:52:28.682Z,99244.16
2023-07-07T02:54:56.962Z,99237.34
2023-07-07T02:57:23.706Z,99239.03
2023-07-07T02:59:50.949Z,99230.66
2023-07-07T03:02:17.798Z,99240.97
2023-07-07T03:04:46.222Z,99239.03
2023-07-07T03:07:12.956Z,99235.50
2023-07-07T03:09:39.693Z,99234.56
2023-07-07T03:12:08.988Z,99234.69
2023-07-07T03:14:35.924Z,99241.41
2023-07-07T03:17:06.949Z,99231.00
2023-07-07T03:19:41.981Z,99236.91
2023-07-07T03:22:15.315Z,99244.69
2023-07-07T03:24:52.637Z,99256.34
2023-07-07T03:27:30.032Z,99251.56
2023-07-07T03:29:57.362Z,99252.28
2023-07-07T03:32:24.105Z,99253.81
2023-07-07T03:34:59.058Z,99246.72
2023-07-07T03:37:26.907Z,99251.44
2023-07-07T03:39:53.972Z,99245.91
2023-07-07T03:42:20.752Z,99248.19
2023-07-07T03:44:49.272Z,99243.47
2023-07-07T03:47:16.018Z,99245.34
2023-07-07T03:49:44.353Z,99253.41
2023-07-07T03:52:11.696Z,99252.44
2023-07-07T03:54:39.587Z,99253.09
2023-07-07T03:57:06.557Z,99245.16
2023-07-07T03:59:34.557Z,99250.56
2023-07-07T04:02:03.332Z,99239.69
2023-07-07T04:04:30.236Z,99247.56
2023-07-07T04:06:57.488Z,99253.50
2023-07-07T04:09:24.594Z,99252.44
2023-07-07T04:11:51.838Z,99256.00
2023-07-07T04:14:18.481Z,99262.22
2023-07-07T04:16:48.030Z,99257.28
2023-07-07T04:19:16.538Z,99255.44
2023-07-07T04:21:43.223Z,99253.47
2023-07-07T04:24:09.906Z,99254.34
2023-07-07T04:26:39.945Z,99256.69
2023-07-07T04:29:07.165Z,99254.25
2023-07-07T04:31:33.882Z,99248.69
2023-07-07T04:34:00.746Z,99260.78
2023-07-07T04:36:28.878Z,99261.50
2023-07-07T04:38:55.632Z,99255.56
2023-07-07T04:41:23.272Z,99250.88
2023-07-07T04:43:51.144Z,99255.25
2023-07-07T04:46:19.328Z,99264.59
2023-07-07T04:48:46.034Z,99262.00
2023-07-07T04:51:13.561Z,99258.69
2023-07-07T04:53:42.258Z,99261.34
2023-07-07T04:56:11.528Z,99255.44
2023-07-07T04:58:39.202Z,99255.66
2023-07-07T05:01:07.577Z,99260.22
2023-07-07T05:03:34.481Z,99256.88
2023-07-07T05:06:04.163Z,99267.47
2023-07-07T05:08:31.136Z,99268.53
2023-07-07T05:11:00.290Z,99270.78
2023-07-07T05:13:27.361Z,99283.94
2023-07-07T05:15:59.748Z,99289.09
2023-07-07T05:18:26.470Z,99287.00
2023-07-07T05:20:53.111Z,99284.25
2023-07-07T05:23:19.794Z,99284.94
2023-07-07T05:25:46.625Z,99289.75
2023-07-07T05:28:15.202Z,99288.31
2023-07-07T05:30:42.126Z,99284.59
2023-07-07T05:33:09.395Z,99297.03
2023-07-07T05:35:36.213Z,99291.41
2023-07-07T05:38:03.650Z,99287.31
2023-07-07T05:40:31.016Z,99281.34
2023-07-07T05:42:57.826Z,99280.69
2023-07-07T05:45:25.898Z,99280.41
2023-07-07T05:47:52.617Z,99277.91
2023-07-07T05:50:19.360Z,99279.69
2023-07-07T05:52:46.070Z,99276.88
2023-07-07T05:55:22.646Z,99273.28
2023-07-07T05:57:49.286Z,99278.91
2023-07-07T06:00:17.722Z,99273.78
2023-07-07T06:02:45.819Z,99283.06
2023-07-07T06:05:12.610Z,99275.69
2023-07-07T06:07:39.282Z,99272.28
2023-07-07T06:10:06.694Z,99273.00
2023-07-07T06:12:36.801Z,99269.84
2023-07-07T06:15:03.900Z,99261.13
2023-07-07T06:17:30.693Z,99254.88
2023-07-07T06:19:58.784Z,99255.00
2023-07-07T06:22:25.529Z,99258.75
2023-07-07T06:24:52.737Z,99265.34
2023-07-07T06:27:19.553Z,99258.78
2023-07-07T06:29:46.495Z,99257.81
2023-07-07T06:32:13.264Z,99252.34
2023-07-07T06:34:40.224Z,99254.53
2023-07-07T06:37:08.385Z,99259.00
2023-07-07T06:39:35.136Z,99264.50
2023-07-07T06:42:02.773Z,99260.41
2023-07-07T06:44:34.841Z,99261.38
2023-07-07T06:47:01.721Z,99268.97
2023-07-07T06:49:28.364Z,99258.28
2023-07-07T06:51:55.069Z,99259.97
2023-07-07T06:54:23.069Z,99256.22
2023-07-07T06:56:49.774Z,99250.94
2023-07-07T06:59:16.501Z,99254.25
2023-07-07T07:01:43.404Z,99256.03
2023-07-07T07:04:10.303Z,99250.09
2023-07-07T07:06:37.077Z,99257.00
2023-07-07T07:09:03.892Z,99256.25
2023-07-07T07:11:31.998Z,99258.72
2023-07-07T07:13:58.720Z,99248.47
2023-07-07T07:16:25.634Z,99251.00
2023-07-07T07:18:52.353Z,99245.91
2023-07-07T07:21:19.073Z,99253.22
2023-07-07T07:23:46.125Z,99257.69
2023-07-07T07:26:13.245Z,99250.59
2023-07-07T07:28:41.312Z,99250.75
2023-07-07T07:31:08.050Z,99260.47
2023-07-07T07:33:34.776Z,99254.84
2023-07-07T07:36:01.569Z,99255.09
2023-07-07T07:38:31.122Z,99259.03
2023-07-07T07:40:58.130Z,99259.19
2023-07-07T07:43:25.143Z,99254.59
2023-07-07T07:45:55.026Z,99259.97
2023-07-07T07:48:21.755Z,99247.41
2023-07-07T07:50:48.489Z,99243.78
2023-07-07T07:53:15.256Z,99250.91
2023-07-07T07:55:41.914Z,99245.22
2023-07-07T07:58:08.705Z,99242.75
2023-07-07T08:00:35.387Z,99237.91
2023-07-07T08:03:03.877Z,99248.78
2023-07-07T08:05:31.807Z,99247.41
2023-07-07T08:07:58.644Z,99252.31
2023-07-07T08:10:25.369Z,99257.81
2023-07-07T08:12:52.354Z,99250.38
2023-07-07T08:15:19.018Z,99252.25
2023-07-07T08:17:45.793Z,99250.28
2023-07-07T08:20:17.385Z,99260.38
2023-07-07T08:22:44.121Z,99257.09
2023-07-07T08:25:11.224Z,99255.06
2023-07-07T08:27:39.187Z,99251.88
2023-07-07T08:30:06.871Z,99251.91
2023-07-07T08:32:34.033Z,99250.28
2023-07-07T08:35:00.789Z,99251.09
2023-07-07T08:37:29.134Z,99246.59
2023-07-07T08:39:56.266Z,99243.09
2023-07-07T08:42:28.134Z,99243.03
2023-07-07T08:44:56.443Z,99239.56
2023-07-07T08:47:39.735Z,99242.69
2023-07-07T08:50:23.636Z,99239.38
2023-07-07T08:53:00.093Z,99240.56
2023-07-07T08:55:33.299Z,99233.34
2023-07-07T09:00:35.431Z,99228.59
2023-07-07T09:03:12.618Z,99225.59
2023-07-07T09:05:45.494Z,99223.44
2023-07-07T09:08:20.193Z,99225.06
2023-07-07T09:10:51.712Z,99238.34
2023-07-07T09:13:21.946Z,99229.47
2023-07-07T09:15:57.944Z,99225.88
2023-07-07T09:18:29.872Z,99232.75
2023-07-07T09:20:58.915Z,99231.97
2023-07-07T09:23:29.939Z,99232.25
2023-07-07T09:25:58.907Z,99228.41
2023-07-07T09:28:28.509Z,99227.03
2023-07-07T09:30:58.726Z,99222.69
2023-07-07T09:33:26.216Z,99216.03
2023-07-07T09:36:01.205Z,99213.44
2023-07-07T09:38:34.392Z,99218.06
2023-07-07T09:41:10.043Z,99204.97
2023-07-07T09:43:53.728Z,99211.53
2023-07-07T09:46:23.240Z,99201.88
2023-07-07T09:48:52.096Z,99202.84
2023-07-07T09:51:23.072Z,99201.56
2023-07-07T09:53:51.280Z,99199.84
2023-07-07T09:56:21.304Z,99194.78
2023-07-07T09:58:52.110Z,99196.28
2023-07-07T10:01:20.206Z,99195.91
2023-07-07T10:03:47.858Z,99192.03
2023-07-07T10:06:19.867Z,99187.72
2023-07-07T10:08:46.632Z,99191.47
2023-07-07T10:13:47.629Z,99186.81
2023-07-07T10:16:18.544Z,99183.78
2023-07-07T10:18:53.674Z,99193.03
2023-07-07T10:21:21.011Z,99190.09
2023-07-07T10:23:47.660Z,99196.53
2023-07-07T10:26:16.107Z,99188.91
2023-07-07T10:28:43.184Z,99194.97
2023-07-07T10:31:09.990Z,99192.56
2023-07-07T10:33:37.472Z,99190.25
2023-07-07T10:36:17.212Z,99182.56
2023-07-07T10:38:56.203Z,99188.66
2023-07-07T10:41:25.253Z,99188.56
2023-07-07T10:43:51.925Z,99188.56
2023-07-07T10:46:18.958Z,99187.88
2023-07-07T10:48:46.163Z,99186.97
2023-07-07T10:51:17.494Z,99187.78
2023-07-07T10:53:50.799Z,99179.41
2023-07-07T10:56:25.321Z,99180.53
2023-07-07T10:59:03.618Z,99171.94
2023-07-07T11:01:35.308Z,99172.19
2023-07-07T11:04:10.118Z,99170.13
2023-07-07T11:06:42.009Z,99166.88
2023-07-07T11:09:16.477Z,99161.44
2023-07-07T11:11:46.883Z,99162.94
2023-07-07T11:14:31.401Z,99162.50
2023-07-07T11:17:05.731Z,99163.75
2023-07-07T11:19:43.770Z,99163.31
2023-07-07T11:22:15.006Z,99155.56
2023-07-07T11:27:22.702Z,99155.09
2023-07-07T11:29:57.292Z,99151.63
2023-07-07T11:32:28.483Z,99155.59
2023-07-07T11:35:05.590Z,99160.84
2023-07-07T11:37:40.474Z,99149.84
2023-07-07T11:40:15.277Z,99158.91
2023-07-07T11:42:53.463Z,99157.72
2023-07-07T11:45:29.793Z,99155.91
2023-07-07T11:48:02.936Z,99148.28
2023-07-07T11:50:35.773Z,99140.66
2023-07-07T11:53:15.685Z,99154.34
2023-07-07T11:55:53.101Z,99148.66
2023-07-07T11:58:25.534Z,99148.03
2023-07-07T12:00:58.750Z,99139.69
2023-07-07T12:03:35.136Z,99136.00
2023-07-07T12:06:04.598Z,99139.59
2023-07-07T12:08:37.027Z,99136.13
2023-07-07T12:11:05.331Z,99130.81
2023-07-07T12:13:34.952Z,99136.25
2023-07-07T12:16:06.477Z,99119.78
2023-07-07T12:18:34.383Z,99129.81
2023-07-07T12:21:04.727Z,99137.81
2023-07-07T12:23:33.670Z,99131.69
2023-07-07T12:26:05.171Z,99126.53
2023-07-07T12:28:32.119Z,99125.84
2023-07-07T12:30:59.222Z,99107.34
2023-07-07T12:33:27.347Z,99110.78
2023-07-07T12:35:58.048Z,99112.59
2023-07-07T12:38:27.881Z,99119.75
2023-07-07T12:40:56.680Z,99108.34
2023-07-07T12:43:25.249Z,99111.19
2023-07-07T12:45:52.217Z,99110.38
2023-07-07T12:48:20.306Z,99111.56
2023-07-07T12:50:49.506Z,99108.03
2023-07-07T12:53:22.425Z,99106.19
2023-07-07T12:56:00.012Z,99100.41
2023-07-07T12:58:40.572Z,99106.63
2023-07-07T13:01:10.435Z,99106.00
2023-07-07T13:03:43.968Z,99101.41
2023-07-07T13:06:26.131Z,99092.94
2023-07-07T13:09:03.481Z,99098.56
2023-07-07T13:11:33.089Z,99107.91
2023-07-07T13:14:00.243Z,99100.28
2023-07-07T13:16:29.596Z,99103.19
2023-07-07T13:18:56.522Z,99094.16
2023-07-07T13:21:24.671Z,99100.06
2023-07-07T13:23:53.227Z,99089.06
2023-07-07T13:26:24.214Z,99090.00
2023-07-07T13:28:50.869Z,99092.72
2023-07-07T13:31:17.709Z,99093.50
2023-07-07T13:33:44.624Z,99087.25
2023-07-07T13:36:11.871Z,99083.31
2023-07-07T13:38:41.213Z,99081.97
2023-07-07T13:41:12.946Z,99083.88
2023-07-07T13:43:43.556Z,99078.03
2023-07-07T13:46:14.223Z,99075.16
2023-07-07T13:48:43.008Z,99079.16
2023-07-07T13:51:13.469Z,99086.78
2023-07-07T13:53:40.222Z,99076.28
2023-07-07T13:56:07.270Z,99067.84
2023-07-07T13:58:40.535Z,99071.09
2023-07-07T14:01:20.732Z,99069.56
2023-07-07T14:03:48.686Z,99064.78
2023-07-07T14:06:16.414Z,99065.72
2023-07-07T14:08:43.306Z,99064.22
2023-07-07T14:11:17.321Z,99063.78
2023-07-07T14:13:51.179Z,99063.66
2023-07-07T14:16:20.636Z,99069.88
2023-07-07T14:18:59.226Z,99061.31
2023-07-07T14:21:26.765Z,99060.69
2023-07-07T14:23:53.537Z,99055.88
2023-07-07T14:26:21.181Z,99048.66
2023-07-07T14:28:49.369Z,99052.78
2023-07-07T14:31:16.347Z,99044.06
2023-07-07T14:33:44.976Z,99048.22
2023-07-07T14:36:16.862Z,99037.16
2023-07-07T14:38:47.013Z,99043.06
2023-07-07T14:41:17.134Z,99044.66
2023-07-07T14:43:44.055Z,99034.81
2023-07-07T14:46:16.586Z,99039.53
2023-07-07T14:48:46.896Z,99036.69
2023-07-07T14:51:15.857Z,99027.13
2023-07-07T14:53:42.603Z,99028.59
2023-07-07T14:56:14.074Z,99026.22
2023-07-07T14:58:41.227Z,99030.78
2023-07-07T15:01:08.098Z,99033.88
2023-07-07T15:03:39.806Z,99025.78
2023-07-07T15:06:30.318Z,99029.97
2023-07-07T15:08:57.495Z,99016.25
2023-07-07T15:11:25.984Z,99010.59
2023-07-07T15:13:53.616Z,99011.50
2023-07-07T15:16:23.631Z,99012.75
2023-07-07T15:18:51.923Z,99012.63
2023-07-07T15:21:19.839Z,99006.91
2023-07-07T15:23:46.598Z,99012.53
2023-07-07T15:26:17.131Z,99007.06
2023-07-07T15:28:43.823Z,99011.69
2023-07-07T15:31:15.911Z,99011.69
2023-07-07T15:33:42.872Z,99002.91
2023-07-07T15:36:11.255Z,99004.69
2023-07-07T15:38:49.570Z,99006.25
2023-07-07T15:41:17.304Z,98994.78
2023-07-07T15:43:43.989Z,98993.59
2023-07-07T15:46:11.920Z,98990.94
2023-07-07T15:48:39.067Z,98990.63
2023-07-07T15:51:05.969Z,98989.91
2023-07-07T15:53:37.121Z,98984.50
2023-07-07T15:56:04.014Z,98977.75
2023-07-07T15:58:30.770Z,98972.88
2023-07-07T16:00:57.541Z,98983.16
2023-07-07T16:03:24.319Z,98970.16
2023-07-07T16:05:51.246Z,98968.38
2023-07-07T16:08:18.056Z,98963.06
2023-07-07T16:10:46.324Z,98958.16
2023-07-07T16:13:13.079Z,98956.16
2023-07-07T16:15:39.770Z,98949.38
2023-07-07T16:18:08.748Z,98951.13
2023-07-07T16:20:36.843Z,98952.16
2023-07-07T16:23:03.704Z,98952.31
2023-07-07T16:25:30.552Z,98951.38
2023-07-07T16:27:58.671Z,98949.75
2023-07-07T16:30:30.342Z,98960.25
2023-07-07T16:32:57.109Z,98943.59
2023-07-07T16:35:24.035Z,98955.03
2023-07-07T16:37:50.839Z,98947.50
2023-07-07T16:40:22.128Z,98946.28
2023-07-07T16:42:49.192Z,98946.06
2023-07-07T16:45:17.461Z,98934.84
2023-07-07T16:47:44.641Z,98933.63
2023-07-07T16:50:22.886Z,98939.59
2023-07-07T16:52:50.229Z,98934.25
2023-07-07T16:55:17.389Z,98937.09
2023-07-07T16:57:44.595Z,98934.06
2023-07-07T17:00:14.566Z,98938.03
2023-07-07T17:02:42.778Z,98937.03
2023-07-07T17:05:11.953Z,98932.91
2023-07-07T17:07:38.661Z,98943.03
2023-07-07T17:10:15.416Z,98932.97
2023-07-07T17:12:42.125Z,98932.41
2023-07-07T17:15:09.130Z,98936.53
2023-07-07T17:17:36.327Z,98939.03
2023-07-07T17:20:10.377Z,98932.63
2023-07-07T17:22:37.049Z,98934.59
2023-07-07T17:25:04.012Z,98934.59
2023-07-07T17:27:30.667Z,98933.28
2023-07-07T17:29:57.368Z,98939.63
2023-07-07T17:32:24.042Z,98935.34
2023-07-07T17:34:50.754Z,98936.19
2023-07-07T17:37:18.831Z,98933.19
2023-07-07T17:39:45.583Z,98926.66
2023-07-07T17:42:12.255Z,98929.44
2023-07-07T17:44:39.197Z,98927.81
2023-07-07T17:47:09.013Z,98930.78
2023-07-07T17:49:35.652Z,98935.38
2023-07-07T17:52:03.345Z,98923.97
2023-07-07T17:54:32.058Z,98919.09
2023-07-07T17:56:58.778Z,98918.03
2023-07-07T17:59:25.620Z,98922.66
2023-07-07T18:01:53.156Z,98915.00
2023-07-07T18:04:19.931Z,98920.25
2023-07-07T18:06:47.902Z,98922.53
2023-07-07T18:09:15.635Z,98927.75
2023-07-07T18:11:43.760Z,98929.22
2023-07-07T18:14:10.526Z,98934.44
2023-07-07T18:16:40.754Z,98929.56
2023-07-07T18:19:45.104Z,98935.94
2023-07-07T18:22:00.443Z,98931.69
2023-07-07T18:24:29.388Z,98922.97
2023-07-07T18:26:57.480Z,98913.97
2023-07-07T18:29:24.762Z,98920.25
2023-07-07T18:31:51.611Z,98925.44
2023-07-07T18:34:18.426Z,98917.00
2023-07-07T18:36:48.241Z,98925.72
2023-07-07T18:39:20.432Z,98923.56
2023-07-07T18:41:47.219Z,98926.81
2023-07-07T18:44:15.358Z,98922.72
2023-07-07T18:46:43.020Z,98920.28
2023-07-07T18:49:10.874Z,98920.28
2023-07-07T18:51:42.582Z,98917.56
2023-07-07T18:54:09.618Z,98912.09
2023-07-07T18:56:36.668Z,98911.56
2023-07-07T18:59:05.881Z,98915.34
2023-07-07T19:01:35.977Z,98915.34
2023-07-07T19:04:02.891Z,98919.13
2023-07-07T19:06:30.528Z,98918.03
2023-07-07T19:08:57.720Z,98914.22
2023-07-07T19:11:24.423Z,98919.13
2023-07-07T19:13:51.372Z,98923.69
2023-07-07T19:16:19.664Z,98921.22
2023-07-07T19:18:49.736Z,98923.63
2023-07-07T19:21:23.905Z,98920.38
2023-07-07T19:23:52.441Z,98920.09
2023-07-07T19:26:20.471Z,98918.97
2023-07-07T19:28:47.673Z,98924.09
2023-07-07T19:31:15.330Z,98926.78
2023-07-07T19:33:42.773Z,98928.66
2023-07-07T19:36:14.593Z,98936.69
2023-07-07T19:38:41.516Z,98937.25
2023-07-07T19:41:11.547Z,98937.72
2023-07-07T19:43:38.264Z,98934.06
2023-07-07T19:46:13.583Z,98933.50
2023-07-07T19:48:40.260Z,98939.69
2023-07-07T19:51:07.190Z,98934.97
2023-07-07T19:53:36.112Z,98930.31
2023-07-07T19:56:02.839Z,98937.69
2023-07-07T19:58:30.160Z,98940.63
2023-07-07T20:00:56.908Z,98944.13
2023-07-07T20:03:23.955Z,98942.75
2023-07-07T20:05:50.672Z,98950.31
2023-07-07T20:08:17.546Z,98950.56
2023-07-07T20:10:45.689Z,98949.66
2023-07-07T20:13:12.738Z,98952.50
2023-07-07T20:15:43.199Z,98946.78
2023-07-07T20:18:13.222Z,98948.94
2023-07-07T20:20:40.075Z,98946.78
2023-07-07T20:23:08.622Z,98950.94
2023-07-07T20:25:35.399Z,98938.88
2023-07-07T20:28:03.644Z,98951.03
2023-07-07T20:30:30.927Z,98938.19
2023-07-07T20:32:57.707Z,98941.34
2023-07-07T20:35:24.475Z,98941.75
2023-07-07T20:37:52.881Z,98936.94
2023-07-07T20:40:20.929Z,98930.75
2023-07-07T20:42:47.716Z,98934.78
2023-07-07T20:45:15.897Z,98932.59
2023-07-07T20:47:42.581Z,98935.09
2023-07-07T20:50:16.472Z,98934.84
2023-07-07T20:52:43.154Z,98936.22
2023-07-07T20:55:10.412Z,98936.53
2023-07-07T20:57:38.928Z,98929.81
2023-07-07T21:00:11.521Z,98936.03
2023-07-07T21:02:39.604Z,98952.47
2023-07-07T21:05:06.315Z,98938.88
2023-07-07T21:07:33.033Z,98940.75
2023-07-07T21:10:01.331Z,98942.13
2023-07-07T21:12:28.284Z,98940.81
2023-07-07T21:14:54.929Z,98934.25
2023-07-07T21:17:21.818Z,98945.91
2023-07-07T21:19:49.936Z,98943.63
2023-07-07T21:22:16.620Z,98944.72
2023-07-07T21:24:43.301Z,98945.44
2023-07-07T21:27:10.417Z,98940.28
2023-07-07T21:29:39.096Z,98954.19
2023-07-07T21:32:09.081Z,98959.03
2023-07-07T21:34:35.785Z,98955.44
2023-07-07T21:37:03.924Z,98954.28
2023-07-07T21:39:32.388Z,98955.63
2023-07-07T21:44:30.048Z,98967.72
2023-07-07T21:46:56.770Z,98972.31
2023-07-07T21:49:23.503Z,98962.25
2023-07-07T21:51:50.149Z,98959.91
2023-07-07T21:54:18.373Z,98970.69
2023-07-07T21:56:44.986Z,98965.94
2023-07-07T21:59:17.417Z,98959.16
2023-07-07T22:01:45.499Z,98954.22
2023-07-07T22:04:13.388Z,98946.25
2023-07-07T22:06:40.292Z,98951.38
2023-07-07T22:09:10.082Z,98950.09
2023-07-07T22:11:38.305Z,98949.03
2023-07-07T22:14:05.343Z,98948.56
2023-07-07T22:16:32.077Z,98956.16
2023-07-07T22:18:58.845Z,98957.50
2023-07-07T22:21:25.600Z,98944.91
2023-07-07T22:23:52.380Z,98946.41
2023-07-07T22:26:20.369Z,98943.25
2023-07-07T22:28:48.641Z,98950.38
2023-07-07T22:31:16.163Z,98951.16
2023-07-07T22:33:43.045Z,98958.13
2023-07-07T22:36:12.590Z,98955.16
2023-07-07T22:38:39.302Z,98953.56
2023-07-07T22:41:06.018Z,98949.47
2023-07-07T22:43:32.908Z,98948.03
2023-07-07T22:46:02.182Z,98948.19
2023-07-07T22:48:30.477Z,98955.44
2023-07-07T22:50:59.414Z,98958.59
2023-07-07T22:53:26.243Z,98954.13
2023-07-07T22:55:53.519Z,98957.59
2023-07-07T22:58:21.153Z,98949.75
2023-07-07T23:00:48.526Z,98957.16
2023-07-07T23:06:09.414Z,98945.91
2023-07-07T23:08:36.586Z,98947.16
2023-07-07T23:11:03.290Z,98947.16
2023-07-07T23:13:30.101Z,98941.66
2023-07-07T23:15:56.951Z,98942.56
2023-07-07T23:18:24.988Z,98938.31
2023-07-07T23:20:51.655Z,98932.19
2023-07-07T23:23:23.029Z,98930.19
2023-07-07T23:25:58.103Z,98941.44
2023-07-07T23:28:28.160Z,98942.47
2023-07-07T23:31:05.179Z,98947.22
2023-07-07T23:33:34.357Z,98938.31
2023-07-07T23:36:02.087Z,98935.03
2023-07-07T23:38:28.797Z,98933.78
2023-07-07T23:40:55.483Z,98934.00
2023-07-07T23:43:22.144Z,98936.69
2023-07-07T23:45:49.377Z,98937.31
2023-07-07T23:48:17.078Z,98931.59
2023-07-07T23:50:48.682Z,98922.13
2023-07-07T23:53:15.939Z,98922.13
2023-07-07T23:55:42.771Z,98924.78
2023-07-07T23:58:10.351Z,98923.34
